Benvolgut visitant, si us plau, ingressa Recuperar contrasenya
AVAMET paisatges
Union Alcoyana

Teulada Sant Jaume

Dades diàries. Acumulats / Últims 30 dies disponibles

Data Temperatura (°C) Humitat rel. (%) Pressió rel. (hPa) Vent (km/h) Precipitació
Mínima Mitjana Màxima Amplitud
tèrmica
Mínima Mitjana Màxima Mínima Mitjana Màxima Predom. Mitjana Ràfega
màxima
Total
(mm)
Índex-n
Mínima Mitjana Màxima Mínima Mitjana Màxima n
0 a 1
P0 max
mm 5'
Dades mensuals acumulades fins l'últim dia disponible
05/2022 11,8 13,8 15,7 17,3 14,8 21,1 24,3 12,5 43 72 96 1.010 1.020 1.026   8,3 59,5 34,2
Dades anuals acumulades fins l'últim dia disponible
2022 4,2 9,9 15,9 12,7 9,2 16,0 24,3 20,1 15 75 97 1.000 1.021 1.037   9,1 72,4 433,6
Últims 30 dies disponibles
15-05-2022 15,7     19,6     24,3 8,6 51 73 93 1.016 1.018 1.019 NNW 5,6 20,9 0,0
14-05-2022 15,1     19,4     23,6 8,5 48 69 91 1.018 1.020 1.022 SSW 3,9 22,5 0,0
13-05-2022 14,8     18,7     23,4 8,6 59 76 89 1.021 1.022 1.023 NNW 6,0 19,3 0,0
12-05-2022 12,6     17,2     22,3 9,7 59 79 88 1.021 1.022 1.023 NNE 10,3 32,2 0,0
11-05-2022 15,6     18,1     21,3 5,7 59 71 91 1.021 1.022 1.024 SSW 9,2 25,7 0,0
10-05-2022 13,9     18,1     21,3 7,4 52 62 73 1.023 1.024 1.026 SW 5,8 25,7 0,0
09-05-2022 14,2     18,3     22,1 7,9 43 61 84 1.022 1.023 1.025 SW 3,5 16,1 0,0
08-05-2022 14,0     18,2     21,3 7,3 49 61 73 1.019 1.020 1.022 SW 6,8 33,8 0,0
07-05-2022 13,5     17,4     21,4 7,9 50 66 79 1.020 1.021 1.022 SW 5,8 20,9 0,0
06-05-2022 12,4     16,7     20,7 8,3 53 68 81 1.020 1.022 1.024 SW 5,3 30,6 0,0
05-05-2022 13,3     16,1     19,7 6,4 49 70 86 1.018 1.021 1.024 NNE 16,3 46,7 0,0
04-05-2022 11,8     13,3     14,8 3,0 86 93 96 1.014 1.016 1.018 NNE 18,2 59,5 29,0 0,56 5,00
03-05-2022 12,8     15,2     18,8 6,0 70 82 90 1.010 1.012 1.015 NNW 11,4 40,2 0,0
02-05-2022 12,3     15,4     19,3 7,0 73 83 93 1.012 1.014 1.017 NNE 9,7 35,4 4,6 0,30 1,20
01-05-2022 14,6     18,0     22,1 7,5 45 68 84 1.016 1.019 1.021 SW 6,4 24,1 0,6
30-04-2022 14,2     17,7     21,9 7,7 47 58 71 1.020 1.022 1.025 SO 7,3 29,0 0,0
29-04-2022 13,0     15,7     19,7 6,7 58 77 91 1.023 1.024 1.026 NNE 16,7 41,8 0,0
28-04-2022 11,9     13,1     14,4 2,5 84 90 94 1.019 1.021 1.024 NNE 9,3 37,0 14,4
27-04-2022 12,2     14,1     17,5 5,3 65 81 92 1.015 1.018 1.020 NNW 5,1 29,0 5,8
26-04-2022 10,4     14,4     18,6 8,2 54 76 90 1.014 1.016 1.017 ENE 5,3 22,5 0,0
25-04-2022 11,4     14,9     18,6 7,2 57 77 89 1.013 1.014 1.016 SSW 6,0 22,5 0,0
24-04-2022 12,6     15,6     19,1 6,5 50 61 80 1.011 1.012 1.014 SW 9,8 38,6 0,0
23-04-2022 11,2     15,0     18,9 7,7 33 60 90 1.000 1.004 1.011 SW 15,4 51,5 0,0
22-04-2022 13,1     14,7     16,8 3,7 47 67 90 1.001 1.005 1.007 SW 8,9 35,4 0,0
21-04-2022 8,7     12,9     16,8 8,1 53 72 92 1.004 1.006 1.008 NNW 13,8 48,3 0,8
20-04-2022 7,9     10,7     13,9 6,0 71 88 93 1.001 1.004 1.008 NNE 10,8 35,4 37,0
19-04-2022 13,3     15,9     19,8 6,5 58 82 90 1.008 1.011 1.015 NNE 9,7 33,8 0,0
18-04-2022 12,8     16,4     20,4 7,6 49 71 89 1.013 1.016 1.018 SW 7,9 33,8 0,0
17-04-2022 15,1     18,7     21,6 6,5 52 62 73 1.017 1.017 1.019 NNW 8,4 32,2 0,0
16-04-2022 15,9     19,2     22,5 6,6 48 60 67 1.017 1.020 1.022 SW 9,3 37,0 0,0
Últims 13 mesos disponibles
04/2022 4,2 10,9 15,9 14,0 9,2 17,3 22,5 18,3 48 72 90 1.004 1.015 1.024 NNE 11,8 61,2 96,8
03/2022 7,9 10,1 12,7 12,0 10,3 14,3 19,1 11,2 66 86 95 1.004 1.019 1.027 ENE 12,2 64,4 284,4
02/2022 6,9 9,3 11,7 12,4 13,1 15,9 20,4 13,5 45 72 89 1.018 1.026 1.033 SW 6,5 48,3 4,4
01/2022 4,6 7,4 12,6 10,4 10,3 14,0 21,7 17,1 31 72 91 1.005 1.024 1.034 SW 6,3 72,4 13,8
12/2021 8,2 11,0 17,2 13,7 13,2 16,7 21,8 13,6 49 70 91 1.000 1.012 1.020 SW 8,4 59,5 1,6
11/2021 6,9 10,8 19,7 13,3 11,4 16,4 24,6 17,7 49 71 91 996 1.007 1.019 NNW 9,3 59,5 108,4
10/2021 13,2 15,8 19,2 18,9 19,0 22,5 27,3 14,1 59 80 93 1.001 1.010 1.017 SW 5,8 54,7 113,6
09/2021 14,9 20,0 22,7 23,2 20,7 27,0 30,9 16,0 69 79 91 1.003 1.007 1.014 SW 8,3 46,7 18,8
08/2021 19,2 21,8 24,7 25,3 25,1 29,5 35,4 16,2 61 78 87 997 1.005 1.010 SW 7,6 48,3 13,4
07/2021 17,1 20,7 24,4 24,4 25,2 28,5 35,1 18,0 58 77 85 999 1.005 1.012 SW 7,8 56,3 0,8
06/2021 16,1 18,5 21,3 22,0 20,6 25,8 30,4 14,3 51 75 91 1.001 1.007 1.012 SW 7,9 48,3 7,4
05/2021 11,8 14,7 22,3 18,0 16,7 21,7 28,8 17,0 44 74 92 1.000 1.008 1.014 SW 9,2 43,5 53,6
04/2021 6,9 10,9 13,4 13,6 12,2 16,9 23,4 16,5 69 83 93 997 1.007 1.016 NNE 8,8 49,9 67,6
Tots els anys disponibles
2021 1,2 14,3 24,7 17,4 6,6 21,0 35,4 34,2 40 76 98 994 1.008 1.026 SW 8,5 64,4 573,0
2020 3,3 13,6 24,1 17,4 9,9 21,8 34,4 31,1 35 77 98 993 1.015 1.029 SSO 7,1 86,6 532,8
2019 2,4 13,3 25,3 17,1 10,6 21,7 36,0 33,6 29 71 98 992 1.013 1.029 SO 9,1 84,9 776,3
2018 1,9 13,3 24,3 17,0 7,0 21,6 35,4 33,5 33 71 98 57 986 1.028 SSO 9,0 84,2 580,5
2017 -0,4 13,4 25,4 17,3 6,6 22,0 35,8 36,2 31 70 96 971 1.015 1.031 S 9,0 87,0 647,4
2016 2,8 13,6 25,8 17,8 11,2 22,0 38,4 35,6 24 68 98 981 1.017 1.035 57,0 401,7
Temperatura (°C)
Humitat relativa (%)
Velocitat del vent i ràfega màxima (km/h)
Direcció del vent (°)
Pressió (hPa)
Precipitació (mm)
Nota sobre les dades: s'avisa a l'usuari de la provisionalitat i no oficialitat d'aquestes dades
Logo AVAMET blanc
Web allotjada a Sollutia
Llicència de Creative CommonsLa web d'AVAMET i els seus continguts estan subjectes a una llicència de
Reconeixement - No Comercial - Compartir igual
Avís legal - Política de privacitat - Política de cookies
NOVES ESTACIONS: Sant Mateu - IES Maestrat (Soci)  / el Palomar (Ajuntament/Soci) / Atzeneta del Maestrat - Pla de Meanes (Ajuntament/Soci) / Onda - Sant Gil (Soci) / Onda - Ràtils CR Cota 220 (Soci) / la Vila Joiosa (Ajuntament/Soci) / Miramar - Platja (Ajuntament/Soci) / Massanassa - IES Massanassa (Soci) / Culla - Pla de les Vinyes (Ajuntament/Soci) / Oliva - Col·legi - El Rebollet / Villena - Hondo de Carboneras (Soci) / Ontinyent - les Aigües (Soci) / Castelló de la Plana - IES Bovalar (Soci) /  Villena - las Quebradas (Soci) / la Salzadella (Ajuntament/Soci)  - - -